aviador You're here:

KNOG Decoded Metar

ORANGE GROVE in TX, USA
Report Time2018-02-19 10:56:00
UTC Time2018-02-19 12:02:46
Flight Rules Old
Wind170° at 13 kt
W.Decomp.*RWY 19: 11.8 kt HW 5.5 kt LCW
RWY 13: 10.6 kt HW 7.5 kt RCW
W.Rank170° ranks 4
Current wind is above 170° avg. (9.3)
Visibility9999 m
Phenomena:N/A
Clouds:Broken 020 Hf
Expected CloudBase > 1,200 ft AGL from Temp-Dew spread
Ceiling2,000 ft
Temp22°C (ISA +8)
Dew Point19°C (83% RH)
AAT20.5°C
QNH1012 hPa
Density Alt1,457 ft
Elevation256 ft
Report Wrong Elevation
Raw Report
METAR KNOG 191056Z AUTO 17013KT 9SM BKN020 22/19 A2989 RMK AO2 SLP101
T02170194 PNO $=

Extra information for KNOG:More info

Metar Taf Metar & Taf Last 4 Metars F.Rules Stats Wind Profile Meteogram Temp Stats Airport Information Weather charts Add Link Nearby VenuesMetar ALERT Operation Metar Decoded Social comments

AIRNAV info for KNOG